Latest Coastal Weather Observations for Flinders Reef

IDQ60701

Issued at 4:02 pm EST Friday 1 July 2016 (issued every 10 minutes, with the page automatically refreshed every 10 minutes)

About coastal observations | Map of coastal stations | Coastal observations for QLD | Marine services | Other Formats
Station Details ID: 200783 Name: FLINDERS REEF Lat: -17.72 Lon: 148.45 Height: 2.6 m
Data from the previous 72 hours. | See also: Recent months at Flinders Reef
Date/Time
EST
Temp
°C
Wind Pressure Rain since
9am
mm
Weather Cloud Vis
km
Sea
Height
m
Swell
Dir  Spd
kts
Gust
kts
hPa Trend Height
m
Period
s
Dir
01/04:00pm 24.9 ESE 13 15 1016.7 - - - - - - - - -
01/03:30pm 25.3 ESE 13 15 1016.6 - - - - - - - - -
01/03:24pm 25.0 ESE 13 - 1016.5 - - - - - - - - -
01/03:00pm 25.0 SE 13 15 1016.5 - - - - - - - - -
01/02:30pm 25.0 SE 13 15 1016.6 - - - - - - - - -
01/02:24pm 25.3 ESE 13 - 1016.6 - - - - - - - - -
01/02:00pm 25.2 SE 1 3 1016.9 - - - - - - - - -
01/01:30pm 24.3 SSE 1 2 1017.0 - - - - - - - - -
01/01:24pm 24.4 CALM 0 - 1017.0 - - - - - - - - -
01/01:00pm 24.5 SSE 1 3 1017.4 - - - - - - - - -
01/12:30pm 24.4 S 10 12 1017.7 - - - - - - - - -
01/12:24pm 24.3 S 10 - 1017.7 - - - - - - - - -
01/12:00pm 25.0 SE 10 13 1018.1 - - - - - - - - -
01/11:30am 25.0 SE 9 12 1018.4 - - - - - - - - -
01/11:24am 25.2 SE 9 - 1018.3 - - - - - - - - -
01/11:00am 25.1 ESE 9 11 1018.7 - - - - - - - - -
01/10:30am 25.0 ESE 7 12 1019.1 - - - - - - - - -
01/10:24am 25.0 ESE 5 - 1019.0 - - - - - - - - -
01/10:00am 25.0 ESE 8 10 1019.3 - - - - - - - - -
01/09:30am 24.8 E 8 11 1019.6 - - - - - - - - -
01/09:24am 24.7 E 8 - 1019.6 - - - - - - - - -
01/09:00am 24.6 E 8 10 1019.6 - - - - - - - - -
01/08:30am 25.1 E 9 11 1019.4 - - - - - - - - -
01/08:24am 24.9 E 10 - 1019.2 - - - - - - - - -
01/08:00am 24.3 E 11 13 1019.1 - - - - - - - - -
01/07:30am 24.0 E 14 17 1018.7 - - - - - - - - -
01/07:24am 24.2 E 12 - 1018.6 - - - - - - - - -
01/07:00am 24.1 E 12 14 1018.5 - - - - - - - - -
01/06:30am 24.2 E 9 11 1018.2 - - - - - - - - -
01/06:24am 24.5 ESE 8 - 1018.1 - - - - - - - - -
01/06:00am 24.2 ESE 8 10 1018.0 - - - - - - - - -
01/05:30am 24.3 E 9 10 1017.7 - - - - - - - - -
01/05:24am 24.3 E 8 - 1017.5 - - - - - - - - -
01/05:00am 24.3 E 7 8 1017.4 - - - - - - - - -
01/04:30am 24.2 ENE 7 9 1017.3 - - - - - - - - -
01/04:24am 24.3 ENE 7 - 1017.2 - - - - - - - - -
01/04:00am 24.3 ENE 7 9 1017.4 - - - - - - - - -
01/03:30am 24.4 ENE 8 9 1017.4 - - - - - - - - -
01/03:24am 24.5 ENE 8 - 1017.3 - - - - - - - - -
01/03:00am 24.6 ENE 8 11 1017.4 - - - - - - - - -
01/02:30am 24.8 E 8 10 1017.6 - - - - - - - - -
01/02:24am 24.6 E 8 - 1017.7 - - - - - - - - -
01/02:00am 24.6 E 7 8 1017.9 - - - - - - - - -
01/01:30am 24.7 E 6 7 1018.3 - - - - - - - - -
01/01:24am 24.9 E 7 - 1018.3 - - - - - - - - -
01/01:00am 24.8 E 9 11 1018.5 - - - - - - - - -
01/12:30am 24.9 E 12 15 1018.7 - - - - - - - - -
01/12:24am 25.0 E 12 - 1018.7 - - - - - - - - -
01/12:00am 24.9 E 13 16 1018.6 - - - - - - - - -
 
Date/Time
EST
Temp
°C
Wind Pressure Rain since
9am
mm
Weather Cloud Vis
km
Sea
Height
m
Swell
Dir  Spd
kts
Gust
kts
hPa Trend Height
m
Period
s
Dir
30/11:30pm 24.6 E 14 16 1018.8 - - - - - - - - -
30/11:24pm 24.9 E 14 - 1018.7 - - - - - - - - -
30/11:00pm 24.6 E 12 15 1019.1 - - - - - - - - -
30/10:30pm 24.9 ESE 11 14 1019.2 - - - - - - - - -
30/10:24pm 24.7 ESE 12 - 1019.1 - - - - - - - - -
30/10:00pm 24.8 ESE 11 14 1019.3 - - - - - - - - -
30/09:30pm 25.0 ESE 13 15 1019.2 - - - - - - - - -
30/09:24pm 24.7 SE 13 - 1019.1 - - - - - - - - -
30/09:00pm 25.0 ESE 12 14 1019.4 - - - - - - - - -
30/08:30pm 25.0 ESE 13 15 1019.4 - - - - - - - - -
30/08:24pm 25.1 ESE 13 - 1019.2 - - - - - - - - -
30/08:00pm 24.9 ESE 13 16 1019.0 - - - - - - - - -
30/07:30pm 24.8 ESE 13 15 1018.8 - - - - - - - - -
30/07:24pm 24.8 ESE 13 - 1018.6 - - - - - - - - -
30/07:00pm 25.0 ESE 14 15 1018.4 - - - - - - - - -
30/06:30pm 25.0 ESE 14 15 1018.0 - - - - - - - - -
30/06:24pm 24.9 ESE 14 - 1017.9 - - - - - - - - -
30/06:00pm 25.0 ESE 14 16 1017.7 - - - - - - - - -
30/05:30pm 24.9 ESE 15 17 1017.5 - - - - - - - - -
30/05:24pm 25.1 ESE 15 - 1017.4 - - - - - - - - -
30/05:00pm 25.0 E 15 16 1017.3 - - - - - - - - -
30/04:30pm 25.2 E 13 16 1017.0 - - - - - - - - -
30/04:24pm 25.0 ESE 13 - 1016.9 - - - - - - - - -
30/04:00pm 25.3 ESE 12 14 1017.0 - - - - - - - - -
30/03:30pm 25.1 E 13 15 1016.8 - - - - - - - - -
30/03:24pm 25.1 E 12 - 1016.7 - - - - - - - - -
30/03:00pm 25.4 E 12 14 1016.6 - - - - - - - - -
30/02:30pm 25.6 E 12 15 1016.8 - - - - - - - - -
30/02:24pm 25.3 E 12 - 1016.7 - - - - - - - - -
30/02:00pm 25.2 E 13 14 1017.0 - - - - - - - - -
30/01:30pm 25.1 E 12 15 1017.3 - - - - - - - - -
30/01:24pm 25.3 E 13 - 1017.2 - - - - - - - - -
30/01:00pm 25.2 E 13 15 1017.6 - - - - - - - - -
30/12:30pm 24.8 ESE 13 15 1018.2 - - - - - - - - -
30/12:24pm 25.1 ESE 12 - 1018.2 - - - - - - - - -
30/12:00pm 25.0 E 14 16 1018.6 - - - - - - - - -
30/11:30am 25.3 E 13 16 1019.0 - - - - - - - - -
30/11:24am 25.2 E 14 - 1019.0 - - - - - - - - -
30/11:00am 25.1 E 15 18 1019.2 - - - - - - - - -
30/10:30am 25.2 E 17 21 1019.5 - - - - - - - - -
30/10:24am 25.4 E 17 - 1019.4 - - - - - - - - -
30/10:00am 25.1 E 17 20 1019.7 - - - - - - - - -
30/09:30am 25.2 E 18 21 1019.9 - - - - - - - - -
30/09:24am 25.2 E 17 - 1019.9 - - - - - - - - -
30/09:00am 25.4 E 17 20 1020.0 - - - - - - - - -
30/08:30am 25.2 E 18 22 1019.8 - - - - - - - - -
30/08:24am 25.1 E 17 - 1019.7 - - - - - - - - -
30/08:00am 24.9 E 18 22 1019.6 - - - - - - - - -
30/07:30am 24.8 E 19 23 1019.3 - - - - - - - - -
30/07:24am 25.0 E 19 - 1019.2 - - - - - - - - -
30/07:00am 24.6 E 20 23 1019.0 - - - - - - - - -
30/06:30am 24.7 E 18 21 1018.6 - - - - - - - - -
30/06:24am 24.3 E 17 - 1018.4 - - - - - - - - -
30/06:00am 24.6 E 17 20 1018.5 - - - - - - - - -
30/05:30am 24.2 E 17 20 1018.3 - - - - - - - - -
30/05:24am 24.5 E 16 - 1018.2 - - - - - - - - -
30/05:00am 24.5 E 16 20 1018.2 - - - - - - - - -
30/04:30am 24.5 E 17 21 1018.1 - - - - - - - - -
30/04:24am 24.6 E 17 - 1018.0 - - - - - - - - -
30/04:00am 24.4 E 18 21 1018.1 - - - - - - - - -
30/03:30am 24.2 E 17 20 1018.3 - - - - - - - - -
30/03:24am 24.4 E 19 - 1018.2 - - - - - - - - -
30/03:00am 24.4 E 18 23 1018.3 - - - - - - - - -
30/02:30am 24.1 ESE 19 22 1018.7 - - - - - - - - -
30/02:24am 24.2 ESE 19 - 1018.7 - - - - - - - - -
30/02:00am 24.3 ESE 20 23 1018.9 - - - - - - - - -
30/01:30am 24.8 ESE 19 22 1019.0 - - - - - - - - -
30/01:24am 24.9 ESE 19 - 1019.0 - - - - - - - - -
30/01:00am 25.0 ESE 22 25 1019.2 - - - - - - - - -
30/12:30am 24.4 ESE 22 25 1019.6 - - - - - - - - -
30/12:24am 24.4 ESE 22 - 1019.5 - - - - - - - - -
30/12:00am 24.5 ESE 22 25 1019.7 - - - - - - - - -
 
Date/Time
EST
Temp
°C
Wind Pressure Rain since
9am
mm
Weather Cloud Vis
km
Sea
Height
m
Swell
Dir  Spd
kts
Gust
kts
hPa Trend Height
m
Period
s
Dir
29/11:30pm 24.4 ESE 22 25 1019.9 - - - - - - - - -
29/11:24pm 24.3 SE 21 - 1019.8 - - - - - - - - -
29/11:00pm 24.3 ESE 22 25 1020.1 - - - - - - - - -
29/10:30pm 24.3 SE 19 23 1020.6 - - - - - - - - -
29/10:24pm 24.3 SE 19 - 1020.4 - - - - - - - - -
29/10:00pm 24.0 ESE 18 21 1020.6 - - - - - - - - -
29/09:30pm 24.2 ESE 18 22 1020.6 - - - - - - - - -
29/09:24pm 24.2 ESE 19 - 1020.5 - - - - - - - - -
29/09:00pm 24.2 ESE 22 25 1020.4 - - - - - - - - -
29/08:30pm 23.8 ESE 18 22 1020.4 - - - - - - - - -
29/08:24pm 24.0 ESE 17 - 1020.3 - - - - - - - - -
29/08:00pm 23.7 ESE 17 21 1020.5 - - - - - - - - -
29/07:30pm 23.9 ESE 21 25 1020.2 - - - - - - - - -
29/07:24pm 23.6 ESE 21 - 1020.1 - - - - - - - - -
29/07:00pm 23.7 ESE 18 22 1019.9 - - - - - - - - -
29/06:30pm 23.5 SE 21 24 1019.5 - - - - - - - - -
29/06:24pm 23.8 SE 22 - 1019.4 - - - - - - - - -
29/06:00pm 23.4 SE 20 25 1019.3 - - - - - - - - -
29/05:30pm 23.6 ESE 19 21 1019.2 - - - - - - - - -
29/05:24pm 23.8 ESE 19 - 1019.1 - - - - - - - - -
29/05:00pm 23.5 SE 19 21 1019.0 - - - - - - - - -
29/04:30pm 23.5 SE 19 23 1018.9 - - - - - - - - -
29/04:24pm 23.6 SE 19 - 1018.8 - - - - - - - - -
29/04:00pm 23.7 SE 19 23 1018.6 - - - - - - - - -
29/03:30pm 23.7 ESE 19 22 1018.6 - - - - - - - - -
29/03:24pm 23.5 ESE 19 - 1018.4 - - - - - - - - -
29/03:00pm 23.4 ESE 21 24 1018.5 - - - - - - - - -
29/02:30pm 23.3 SE 19 21 1018.6 - - - - - - - - -
29/02:24pm 23.5 SE 19 - 1018.5 - - - - - - - - -
29/02:00pm 23.4 SE 19 23 1018.8 - - - - - - - - -
29/01:30pm 23.3 SE 19 22 1019.1 - - - - - - - - -
29/01:24pm 23.1 ESE 19 - 1019.1 - - - - - - - - -
29/01:00pm 23.2 SE 20 24 1019.4 - - - - - - - - -
29/12:30pm 23.0 SE 20 25 1019.9 - - - - - - - - -
29/12:24pm 23.0 SE 21 - 1019.9 - - - - - - - - -
29/12:00pm 22.6 SE 20 26 1020.5 - - - - - - - - -
29/11:30am 23.0 SE 21 25 1020.8 - - - - - - - - -
29/11:24am 22.9 SE 21 - 1020.7 - - - - - - - - -
29/11:00am 22.4 SE 22 27 1021.0 - - - - - - - - -
29/10:30am 22.7 SE 21 26 1021.2 - - - - - - - - -
29/10:24am 22.7 SE 22 - 1021.2 - - - - - - - - -
29/10:00am 22.9 SE 22 27 1021.3 - - - - - - - - -
29/09:30am 22.3 SE 22 26 1021.3 - - - - - - - - -
29/09:24am 22.4 SE 23 - 1021.2 - - - - - - - - -
29/09:00am 22.4 SE 23 26 1021.1 - - - - - - - - -
29/08:30am 22.5 SE 22 26 1021.0 - - - - - - - - -
29/08:24am 22.3 SE 22 - 1020.8 - - - - - - - - -
29/08:00am 22.2 SE 22 27 1020.8 - - - - - - - - -
29/07:30am 22.4 SE 24 28 1020.5 - - - - - - - - -
29/07:24am 22.1 SE 24 - 1020.4 - - - - - - - - -
29/07:00am 22.1 SE 23 27 1020.1 - - - - - - - - -
29/06:30am 21.8 SSE 22 28 1020.2 - - - - - - - - -
29/06:24am 22.0 SE 23 - 1020.0 - - - - - - - - -
29/06:00am 21.6 SE 24 29 1019.9 - - - - - - - - -
29/05:30am 21.9 SE 23 28 1019.8 - - - - - - - - -
29/05:24am 21.7 SE 23 - 1019.7 - - - - - - - - -
29/05:00am 21.7 SE 24 29 1019.8 - - - - - - - - -
29/04:30am 22.2 SE 24 30 1019.9 - - - - - - - - -
29/04:24am 21.5 SE 23 - 1019.9 - - - - - - - - -
29/04:00am 21.6 SE 23 28 1020.0 - - - - - - - - -
29/03:30am 21.8 SE 22 27 1020.0 - - - - - - - - -
29/03:24am 21.4 SE 22 - 1019.9 - - - - - - - - -
29/03:00am 21.8 SE 22 25 1020.2 - - - - - - - - -
29/02:30am 22.0 SE 23 28 1020.3 - - - - - - - - -
29/02:24am 21.5 SE 23 - 1020.2 - - - - - - - - -
29/02:00am 22.0 SE 23 26 1020.6 - - - - - - - - -
29/01:30am 21.8 SE 23 27 1021.0 - - - - - - - - -
29/01:24am 21.6 SE 24 - 1020.9 - - - - - - - - -
29/01:00am 21.9 SE 23 27 1021.1 - - - - - - - - -
29/12:30am 21.9 SE 24 27 1021.2 - - - - - - - - -
29/12:24am 21.9 SE 24 - 1021.1 - - - - - - - - -
29/12:00am 21.8 SE 24 29 1021.2 - - - - - - - - -
 
Date/Time
EST
Temp
°C
Wind Pressure Rain since
9am
mm
Weather Cloud Vis
km
Sea
Height
m
Swell
Dir  Spd
kts
Gust
kts
hPa Trend Height
m
Period
s
Dir
28/11:30pm 22.0 SE 25 29 1021.3 - - - - - - - - -
28/11:24pm 22.3 SE 25 - 1021.2 - - - - - - - - -
28/11:00pm 22.2 SE 26 30 1021.4 - - - - - - - - -
28/10:30pm 22.5 SE 26 30 1021.3 - - - - - - - - -
28/10:24pm 22.6 SE 26 - 1021.2 - - - - - - - - -
28/10:00pm 22.6 SE 25 29 1021.3 - - - - - - - - -
28/09:30pm 22.7 SE 25 30 1021.0 - - - - - - - - -
28/09:24pm 22.6 SE 26 - 1020.9 - - - - - - - - -
28/09:00pm 22.6 SE 25 30 1020.8 - - - - - - - - -
28/08:30pm 22.4 SE 25 28 1020.6 - - - - - - - - -
28/08:24pm 22.3 SE 25 - 1020.5 - - - - - - - - -
28/08:00pm 22.5 SE 25 28 1020.4 - - - - - - - - -
28/07:30pm 22.9 SE 23 27 1020.1 - - - - - - - - -
28/07:24pm 23.0 SE 24 - 1019.8 - - - - - - - - -
28/07:00pm 22.6 SE 24 27 1019.8 - - - - - - - - -
28/06:30pm 22.3 SE 23 28 1019.4 - - - - - - - - -
28/06:24pm 22.9 SE 23 - 1019.3 - - - - - - - - -
28/06:00pm 22.5 SSE 23 27 1019.1 - - - - - - - - -
28/05:30pm 22.7 SSE 25 28 1018.6 - - - - - - - - -
28/05:24pm 23.2 SSE 25 - 1018.5 - - - - - - - - -
28/05:00pm 23.2 SSE 24 28 1018.4 - - - - - - - - -
28/04:30pm 23.1 SSE 23 29 1018.1 - - - - - - - - -
28/04:24pm 23.0 SE 24 - 1018.0 - - - - - - - - -

Other Formats:

Comma delimited format used in spreadsheet applications
http://www.bom.gov.au/fwo/IDQ60701/IDQ60701.94290.axf

JavaScript Object Notation format (JSON) in row-major order
http://www.bom.gov.au/fwo/IDQ60701/IDQ60701.94290.json